sensor_id;sensor_type;location;lat;lon;timestamp;P1;durP1;ratioP1;P2;durP2;ratioP2
82511;SDS011;72152;65.012;25.464;2024-03-08T00:01:20;4.20;;;1.70;;
82511;SDS011;72152;65.012;25.464;2024-03-08T00:04:32;3.70;;;1.80;;
82511;SDS011;72152;65.012;25.464;2024-03-08T00:07:31;3.80;;;1.70;;
82511;SDS011;72152;65.012;25.464;2024-03-08T00:10:41;3.80;;;1.90;;
82511;SDS011;72152;65.012;25.464;2024-03-08T00:13:47;3.70;;;1.70;;
82511;SDS011;72152;65.012;25.464;2024-03-08T00:16:53;5.10;;;2.00;;
82511;SDS011;72152;65.012;25.464;2024-03-08T00:20:06;3.90;;;1.80;;
82511;SDS011;72152;65.012;25.464;2024-03-08T00:23:17;3.50;;;1.70;;
82511;SDS011;72152;65.012;25.464;2024-03-08T00:26:24;3.70;;;2.00;;
82511;SDS011;72152;65.012;25.464;2024-03-08T00:29:22;4.10;;;1.80;;
82511;SDS011;72152;65.012;25.464;2024-03-08T00:32:30;4.80;;;1.90;;
82511;SDS011;72152;65.012;25.464;2024-03-08T00:38:36;3.60;;;1.90;;
82511;SDS011;72152;65.012;25.464;2024-03-08T00:44:53;4.10;;;1.60;;
82511;SDS011;72152;65.012;25.464;2024-03-08T00:48:04;4.00;;;1.80;;
82511;SDS011;72152;65.012;25.464;2024-03-08T00:51:16;4.60;;;1.90;;
82511;SDS011;72152;65.012;25.464;2024-03-08T00:54:31;3.70;;;1.80;;
82511;SDS011;72152;65.012;25.464;2024-03-08T00:57:42;3.70;;;1.60;;
82511;SDS011;72152;65.012;25.464;2024-03-08T01:03:53;4.10;;;1.70;;
82511;SDS011;72152;65.012;25.464;2024-03-08T01:06:59;4.20;;;2.10;;
82511;SDS011;72152;65.012;25.464;2024-03-08T01:10:01;3.50;;;1.60;;
82511;SDS011;72152;65.012;25.464;2024-03-08T01:13:05;4.90;;;1.80;;
82511;SDS011;72152;65.012;25.464;2024-03-08T01:16:12;3.90;;;1.70;;
82511;SDS011;72152;65.012;25.464;2024-03-08T01:19:17;3.70;;;1.90;;
82511;SDS011;72152;65.012;25.464;2024-03-08T01:22:29;3.20;;;1.60;;
82511;SDS011;72152;65.012;25.464;2024-03-08T01:25:39;3.60;;;1.80;;
82511;SDS011;72152;65.012;25.464;2024-03-08T01:28:59;3.70;;;1.80;;
82511;SDS011;72152;65.012;25.464;2024-03-08T01:32:16;5.90;;;2.20;;
82511;SDS011;72152;65.012;25.464;2024-03-08T01:35:27;4.80;;;1.90;;
82511;SDS011;72152;65.012;25.464;2024-03-08T01:38:37;3.80;;;1.80;;
82511;SDS011;72152;65.012;25.464;2024-03-08T01:41:49;3.60;;;1.70;;
82511;SDS011;72152;65.012;25.464;2024-03-08T01:45:02;4.10;;;1.90;;
82511;SDS011;72152;65.012;25.464;2024-03-08T01:48:16;3.10;;;1.60;;
82511;SDS011;72152;65.012;25.464;2024-03-08T01:51:24;4.20;;;1.80;;
82511;SDS011;72152;65.012;25.464;2024-03-08T01:54:37;3.70;;;1.90;;
82511;SDS011;72152;65.012;25.464;2024-03-08T01:57:46;4.70;;;1.80;;
82511;SDS011;72152;65.012;25.464;2024-03-08T02:00:58;3.20;;;1.60;;
82511;SDS011;72152;65.012;25.464;2024-03-08T02:04:03;4.30;;;2.00;;
82511;SDS011;72152;65.012;25.464;2024-03-08T02:07:17;3.70;;;1.80;;
82511;SDS011;72152;65.012;25.464;2024-03-08T02:10:27;4.90;;;1.90;;
82511;SDS011;72152;65.012;25.464;2024-03-08T02:13:37;3.50;;;1.90;;
82511;SDS011;72152;65.012;25.464;2024-03-08T02:16:49;3.70;;;1.80;;
82511;SDS011;72152;65.012;25.464;2024-03-08T02:19:52;4.10;;;1.80;;
82511;SDS011;72152;65.012;25.464;2024-03-08T02:23:16;4.40;;;1.90;;
82511;SDS011;72152;65.012;25.464;2024-03-08T02:26:27;3.20;;;1.70;;
82511;SDS011;72152;65.012;25.464;2024-03-08T02:29:35;5.00;;;2.10;;
82511;SDS011;72152;65.012;25.464;2024-03-08T02:32:49;5.10;;;2.00;;
82511;SDS011;72152;65.012;25.464;2024-03-08T02:35:59;3.40;;;1.80;;
82511;SDS011;72152;65.012;25.464;2024-03-08T02:39:06;4.90;;;2.10;;
82511;SDS011;72152;65.012;25.464;2024-03-08T02:42:14;3.80;;;1.70;;
82511;SDS011;72152;65.012;25.464;2024-03-08T02:45:19;4.30;;;2.00;;
82511;SDS011;72152;65.012;25.464;2024-03-08T02:48:36;4.00;;;1.70;;
82511;SDS011;72152;65.012;25.464;2024-03-08T02:51:52;4.40;;;1.80;;
82511;SDS011;72152;65.012;25.464;2024-03-08T02:55:00;4.70;;;2.60;;
82511;SDS011;72152;65.012;25.464;2024-03-08T02:58:11;5.00;;;2.00;;
82511;SDS011;72152;65.012;25.464;2024-03-08T03:01:28;5.60;;;2.40;;
82511;SDS011;72152;65.012;25.464;2024-03-08T03:04:37;5.60;;;2.60;;
82511;SDS011;72152;65.012;25.464;2024-03-08T03:07:43;4.50;;;2.30;;
82511;SDS011;72152;65.012;25.464;2024-03-08T03:10:52;5.00;;;2.50;;
82511;SDS011;72152;65.012;25.464;2024-03-08T03:14:07;4.60;;;2.40;;
82511;SDS011;72152;65.012;25.464;2024-03-08T03:17:16;5.10;;;2.20;;
82511;SDS011;72152;65.012;25.464;2024-03-08T03:20:24;4.70;;;1.90;;
82511;SDS011;72152;65.012;25.464;2024-03-08T03:23:38;4.70;;;2.10;;
82511;SDS011;72152;65.012;25.464;2024-03-08T03:26:43;5.00;;;2.10;;
82511;SDS011;72152;65.012;25.464;2024-03-08T03:29:49;4.50;;;2.10;;
82511;SDS011;72152;65.012;25.464;2024-03-08T03:33:13;5.80;;;2.10;;
82511;SDS011;72152;65.012;25.464;2024-03-08T03:36:16;4.70;;;2.00;;
82511;SDS011;72152;65.012;25.464;2024-03-08T03:39:32;4.60;;;2.10;;
82511;SDS011;72152;65.012;25.464;2024-03-08T03:42:51;3.80;;;1.90;;
82511;SDS011;72152;65.012;25.464;2024-03-08T03:46:01;4.10;;;1.90;;
82511;SDS011;72152;65.012;25.464;2024-03-08T03:49:09;4.50;;;2.10;;
82511;SDS011;72152;65.012;25.464;2024-03-08T03:52:19;4.20;;;2.10;;
82511;SDS011;72152;65.012;25.464;2024-03-08T03:55:27;4.50;;;2.30;;
82511;SDS011;72152;65.012;25.464;2024-03-08T03:58:33;5.70;;;2.60;;
82511;SDS011;72152;65.012;25.464;2024-03-08T04:01:47;4.40;;;2.00;;
82511;SDS011;72152;65.012;25.464;2024-03-08T04:04:56;4.60;;;2.40;;
82511;SDS011;72152;65.012;25.464;2024-03-08T04:08:10;31.90;;;11.50;;
82511;SDS011;72152;65.012;25.464;2024-03-08T04:11:17;13.90;;;5.80;;
82511;SDS011;72152;65.012;25.464;2024-03-08T04:14:27;5.90;;;2.70;;
82511;SDS011;72152;65.012;25.464;2024-03-08T04:17:39;5.30;;;2.40;;
82511;SDS011;72152;65.012;25.464;2024-03-08T04:20:54;4.70;;;2.40;;
82511;SDS011;72152;65.012;25.464;2024-03-08T04:24:07;5.20;;;2.50;;
82511;SDS011;72152;65.012;25.464;2024-03-08T04:27:15;5.80;;;2.40;;
82511;SDS011;72152;65.012;25.464;2024-03-08T04:30:25;3.90;;;1.80;;
82511;SDS011;72152;65.012;25.464;2024-03-08T04:33:39;4.60;;;2.10;;
82511;SDS011;72152;65.012;25.464;2024-03-08T04:36:58;4.60;;;2.30;;
82511;SDS011;72152;65.012;25.464;2024-03-08T04:40:08;5.00;;;2.30;;
82511;SDS011;72152;65.012;25.464;2024-03-08T04:43:25;4.50;;;2.10;;
82511;SDS011;72152;65.012;25.464;2024-03-08T04:46:37;5.30;;;2.20;;
82511;SDS011;72152;65.012;25.464;2024-03-08T04:52:34;3.70;;;2.10;;
82511;SDS011;72152;65.012;25.464;2024-03-08T04:55:41;4.20;;;1.90;;
82511;SDS011;72152;65.012;25.464;2024-03-08T04:58:55;4.20;;;2.10;;
82511;SDS011;72152;65.012;25.464;2024-03-08T05:02:01;5.00;;;2.40;;
82511;SDS011;72152;65.012;25.464;2024-03-08T05:05:11;4.10;;;2.00;;
82511;SDS011;72152;65.012;25.464;2024-03-08T05:08:23;3.60;;;1.80;;
82511;SDS011;72152;65.012;25.464;2024-03-08T05:11:31;4.30;;;1.90;;
82511;SDS011;72152;65.012;25.464;2024-03-08T05:14:45;3.50;;;1.80;;
82511;SDS011;72152;65.012;25.464;2024-03-08T05:17:59;3.90;;;1.70;;
82511;SDS011;72152;65.012;25.464;2024-03-08T05:21:18;3.90;;;1.70;;
82511;SDS011;72152;65.012;25.464;2024-03-08T05:24:33;3.20;;;1.70;;
82511;SDS011;72152;65.012;25.464;2024-03-08T05:27:38;3.80;;;2.10;;
82511;SDS011;72152;65.012;25.464;2024-03-08T05:30:46;3.60;;;1.90;;
82511;SDS011;72152;65.012;25.464;2024-03-08T05:33:58;3.10;;;1.60;;
82511;SDS011;72152;65.012;25.464;2024-03-08T05:37:08;2.90;;;1.70;;
82511;SDS011;72152;65.012;25.464;2024-03-08T05:40:25;3.60;;;1.80;;
82511;SDS011;72152;65.012;25.464;2024-03-08T05:43:37;3.70;;;1.90;;
82511;SDS011;72152;65.012;25.464;2024-03-08T05:46:46;4.30;;;1.90;;
82511;SDS011;72152;65.012;25.464;2024-03-08T05:49:57;3.60;;;1.80;;
82511;SDS011;72152;65.012;25.464;2024-03-08T05:53:08;3.90;;;1.80;;
82511;SDS011;72152;65.012;25.464;2024-03-08T05:56:19;3.90;;;2.00;;
82511;SDS011;72152;65.012;25.464;2024-03-08T05:59:25;3.90;;;1.50;;
82511;SDS011;72152;65.012;25.464;2024-03-08T06:02:38;3.80;;;1.70;;
82511;SDS011;72152;65.012;25.464;2024-03-08T06:05:52;3.80;;;1.70;;
82511;SDS011;72152;65.012;25.464;2024-03-08T06:09:07;6.00;;;2.10;;
82511;SDS011;72152;65.012;25.464;2024-03-08T06:12:18;3.10;;;1.70;;
82511;SDS011;72152;65.012;25.464;2024-03-08T06:15:23;4.00;;;1.90;;
82511;SDS011;72152;65.012;25.464;2024-03-08T06:18:36;3.40;;;1.70;;
82511;SDS011;72152;65.012;25.464;2024-03-08T06:21:41;4.50;;;2.00;;
82511;SDS011;72152;65.012;25.464;2024-03-08T06:24:52;4.30;;;1.70;;
82511;SDS011;72152;65.012;25.464;2024-03-08T06:28:08;4.00;;;1.90;;
82511;SDS011;72152;65.012;25.464;2024-03-08T06:31:19;3.90;;;2.00;;
82511;SDS011;72152;65.012;25.464;2024-03-08T06:34:34;3.90;;;1.90;;
82511;SDS011;72152;65.012;25.464;2024-03-08T06:38:00;4.00;;;2.10;;
82511;SDS011;72152;65.012;25.464;2024-03-08T06:44:22;3.60;;;1.80;;
82511;SDS011;72152;65.012;25.464;2024-03-08T06:47:31;3.40;;;1.60;;
82511;SDS011;72152;65.012;25.464;2024-03-08T06:50:39;3.50;;;1.80;;
82511;SDS011;72152;65.012;25.464;2024-03-08T06:53:45;4.20;;;1.80;;
82511;SDS011;72152;65.012;25.464;2024-03-08T06:56:54;4.10;;;2.00;;
82511;SDS011;72152;65.012;25.464;2024-03-08T07:00:05;5.50;;;2.80;;
82511;SDS011;72152;65.012;25.464;2024-03-08T07:03:17;6.30;;;3.00;;
82511;SDS011;72152;65.012;25.464;2024-03-08T07:06:26;3.70;;;2.00;;
82511;SDS011;72152;65.012;25.464;2024-03-08T07:12:32;5.00;;;2.10;;
82511;SDS011;72152;65.012;25.464;2024-03-08T07:15:44;5.50;;;2.10;;
82511;SDS011;72152;65.012;25.464;2024-03-08T07:19:01;5.30;;;2.00;;
82511;SDS011;72152;65.012;25.464;2024-03-08T07:22:18;4.50;;;2.20;;
82511;SDS011;72152;65.012;25.464;2024-03-08T07:25:33;3.60;;;2.00;;
82511;SDS011;72152;65.012;25.464;2024-03-08T07:28:47;3.70;;;1.70;;
82511;SDS011;72152;65.012;25.464;2024-03-08T07:32:07;4.30;;;2.10;;
82511;SDS011;72152;65.012;25.464;2024-03-08T07:35:16;4.70;;;2.00;;
82511;SDS011;72152;65.012;25.464;2024-03-08T07:38:33;4.50;;;1.90;;
82511;SDS011;72152;65.012;25.464;2024-03-08T07:41:49;4.80;;;2.20;;
82511;SDS011;72152;65.012;25.464;2024-03-08T07:45:00;4.00;;;1.70;;
82511;SDS011;72152;65.012;25.464;2024-03-08T07:48:09;5.20;;;2.00;;
82511;SDS011;72152;65.012;25.464;2024-03-08T07:51:18;4.80;;;2.00;;
82511;SDS011;72152;65.012;25.464;2024-03-08T07:54:28;2.80;;;1.60;;
82511;SDS011;72152;65.012;25.464;2024-03-08T07:57:37;4.00;;;1.80;;
82511;SDS011;72152;65.012;25.464;2024-03-08T08:00:47;4.70;;;1.80;;
82511;SDS011;72152;65.012;25.464;2024-03-08T08:04:03;2.80;;;1.30;;
82511;SDS011;72152;65.012;25.464;2024-03-08T08:10:28;3.90;;;1.50;;
82511;SDS011;72152;65.012;25.464;2024-03-08T08:13:39;3.10;;;1.30;;
82511;SDS011;72152;65.012;25.464;2024-03-08T08:16:49;2.70;;;1.40;;
82511;SDS011;72152;65.012;25.464;2024-03-08T08:19:57;3.00;;;1.40;;
82511;SDS011;72152;65.012;25.464;2024-03-08T08:23:05;4.10;;;1.50;;
82511;SDS011;72152;65.012;25.464;2024-03-08T08:26:16;25.80;;;9.10;;
82511;SDS011;72152;65.012;25.464;2024-03-08T08:29:26;7.20;;;2.90;;
82511;SDS011;72152;65.012;25.464;2024-03-08T08:32:33;3.70;;;1.60;;
82511;SDS011;72152;65.012;25.464;2024-03-08T08:35:43;4.00;;;1.10;;
82511;SDS011;72152;65.012;25.464;2024-03-08T08:38:57;4.40;;;1.30;;
82511;SDS011;72152;65.012;25.464;2024-03-08T08:42:10;4.50;;;1.70;;
82511;SDS011;72152;65.012;25.464;2024-03-08T08:45:19;3.30;;;1.20;;
82511;SDS011;72152;65.012;25.464;2024-03-08T08:48:28;3.20;;;1.30;;
82511;SDS011;72152;65.012;25.464;2024-03-08T08:51:39;2.00;;;1.10;;
82511;SDS011;72152;65.012;25.464;2024-03-08T08:54:45;3.80;;;1.20;;
82511;SDS011;72152;65.012;25.464;2024-03-08T08:57:57;3.00;;;1.20;;
82511;SDS011;72152;65.012;25.464;2024-03-08T09:01:06;6.20;;;2.40;;
82511;SDS011;72152;65.012;25.464;2024-03-08T09:04:11;4.30;;;1.80;;
82511;SDS011;72152;65.012;25.464;2024-03-08T09:07:25;3.50;;;1.50;;
82511;SDS011;72152;65.012;25.464;2024-03-08T09:10:30;2.60;;;1.10;;
82511;SDS011;72152;65.012;25.464;2024-03-08T09:13:33;3.50;;;1.10;;
82511;SDS011;72152;65.012;25.464;2024-03-08T09:16:48;3.60;;;1.50;;
82511;SDS011;72152;65.012;25.464;2024-03-08T09:19:58;3.00;;;1.10;;
82511;SDS011;72152;65.012;25.464;2024-03-08T09:23:12;3.90;;;1.30;;
82511;SDS011;72152;65.012;25.464;2024-03-08T09:29:46;3.50;;;1.40;;
82511;SDS011;72152;65.012;25.464;2024-03-08T09:33:06;3.20;;;1.30;;
82511;SDS011;72152;65.012;25.464;2024-03-08T09:36:16;5.00;;;0.90;;
82511;SDS011;72152;65.012;25.464;2024-03-08T09:39:32;4.20;;;1.20;;
82511;SDS011;72152;65.012;25.464;2024-03-08T09:42:42;2.70;;;1.20;;
82511;SDS011;72152;65.012;25.464;2024-03-08T09:45:50;2.90;;;1.00;;
82511;SDS011;72152;65.012;25.464;2024-03-08T09:55:30;3.60;;;1.30;;
82511;SDS011;72152;65.012;25.464;2024-03-08T09:58:42;2.90;;;1.20;;
82511;SDS011;72152;65.012;25.464;2024-03-08T10:02:15;3.50;;;1.20;;
82511;SDS011;72152;65.012;25.464;2024-03-08T10:05:24;1.80;;;1.00;;
82511;SDS011;72152;65.012;25.464;2024-03-08T10:08:54;3.60;;;1.10;;
82511;SDS011;72152;65.012;25.464;2024-03-08T10:12:02;4.10;;;1.10;;
82511;SDS011;72152;65.012;25.464;2024-03-08T10:15:21;2.80;;;1.10;;
82511;SDS011;72152;65.012;25.464;2024-03-08T10:18:32;3.10;;;1.10;;
82511;SDS011;72152;65.012;25.464;2024-03-08T10:21:53;1.40;;;0.80;;
82511;SDS011;72152;65.012;25.464;2024-03-08T10:25:04;2.80;;;1.00;;
82511;SDS011;72152;65.012;25.464;2024-03-08T10:28:21;2.40;;;1.00;;
82511;SDS011;72152;65.012;25.464;2024-03-08T10:31:35;3.20;;;1.00;;
82511;SDS011;72152;65.012;25.464;2024-03-08T10:34:45;2.30;;;0.90;;
82511;SDS011;72152;65.012;25.464;2024-03-08T10:37:58;2.60;;;1.00;;
82511;SDS011;72152;65.012;25.464;2024-03-08T10:41:18;2.80;;;1.30;;
82511;SDS011;72152;65.012;25.464;2024-03-08T10:44:36;2.60;;;0.90;;
82511;SDS011;72152;65.012;25.464;2024-03-08T10:47:48;1.50;;;0.70;;
82511;SDS011;72152;65.012;25.464;2024-03-08T10:51:01;2.90;;;1.00;;
82511;SDS011;72152;65.012;25.464;2024-03-08T10:54:15;1.30;;;0.80;;
82511;SDS011;72152;65.012;25.464;2024-03-08T10:57:26;2.50;;;1.10;;
82511;SDS011;72152;65.012;25.464;2024-03-08T11:00:33;2.70;;;0.70;;
82511;SDS011;72152;65.012;25.464;2024-03-08T11:03:52;2.60;;;1.20;;
82511;SDS011;72152;65.012;25.464;2024-03-08T11:07:06;2.60;;;0.90;;
82511;SDS011;72152;65.012;25.464;2024-03-08T11:10:22;1.30;;;0.60;;
82511;SDS011;72152;65.012;25.464;2024-03-08T11:13:35;4.20;;;0.90;;
82511;SDS011;72152;65.012;25.464;2024-03-08T11:16:44;1.10;;;0.40;;
82511;SDS011;72152;65.012;25.464;2024-03-08T11:19:50;3.70;;;0.80;;
82511;SDS011;72152;65.012;25.464;2024-03-08T11:22:59;2.00;;;0.70;;
82511;SDS011;72152;65.012;25.464;2024-03-08T11:32:38;1.40;;;0.50;;
82511;SDS011;72152;65.012;25.464;2024-03-08T11:35:54;0.50;;;0.20;;
82511;SDS011;72152;65.012;25.464;2024-03-08T11:39:19;1.10;;;0.60;;
82511;SDS011;72152;65.012;25.464;2024-03-08T11:42:30;1.10;;;0.40;;
82511;SDS011;72152;65.012;25.464;2024-03-08T11:45:42;2.20;;;0.60;;
82511;SDS011;72152;65.012;25.464;2024-03-08T11:49:06;1.60;;;0.60;;
82511;SDS011;72152;65.012;25.464;2024-03-08T11:52:13;1.00;;;0.60;;
82511;SDS011;72152;65.012;25.464;2024-03-08T11:55:19;0.60;;;0.50;;
82511;SDS011;72152;65.012;25.464;2024-03-08T11:58:36;2.80;;;1.50;;
82511;SDS011;72152;65.012;25.464;2024-03-08T12:05:17;2.40;;;0.40;;
82511;SDS011;72152;65.012;25.464;2024-03-08T12:08:33;1.50;;;0.40;;
82511;SDS011;72152;65.012;25.464;2024-03-08T12:11:45;1.50;;;0.30;;
82511;SDS011;72152;65.012;25.464;2024-03-08T12:14:55;0.50;;;0.30;;
82511;SDS011;72152;65.012;25.464;2024-03-08T12:18:06;0.90;;;0.20;;
82511;SDS011;72152;65.012;25.464;2024-03-08T12:21:23;1.60;;;1.10;;
82511;SDS011;72152;65.012;25.464;2024-03-08T12:24:42;5.20;;;1.90;;
82511;SDS011;72152;65.012;25.464;2024-03-08T12:28:06;1.00;;;0.50;;
82511;SDS011;72152;65.012;25.464;2024-03-08T12:31:20;0.80;;;0.40;;
82511;SDS011;72152;65.012;25.464;2024-03-08T12:34:31;1.60;;;0.30;;
82511;SDS011;72152;65.012;25.464;2024-03-08T12:37:42;1.60;;;0.50;;
82511;SDS011;72152;65.012;25.464;2024-03-08T12:40:51;0.70;;;0.30;;
82511;SDS011;72152;65.012;25.464;2024-03-08T12:44:06;1.30;;;0.30;;
82511;SDS011;72152;65.012;25.464;2024-03-08T12:47:27;1.10;;;0.40;;
82511;SDS011;72152;65.012;25.464;2024-03-08T12:50:33;2.00;;;0.40;;
82511;SDS011;72152;65.012;25.464;2024-03-08T12:53:45;0.50;;;0.20;;
82511;SDS011;72152;65.012;25.464;2024-03-08T12:56:55;0.60;;;0.30;;
82511;SDS011;72152;65.012;25.464;2024-03-08T13:00:04;0.40;;;0.20;;
82511;SDS011;72152;65.012;25.464;2024-03-08T13:03:16;1.00;;;0.40;;
82511;SDS011;72152;65.012;25.464;2024-03-08T13:06:25;1.10;;;0.30;;
82511;SDS011;72152;65.012;25.464;2024-03-08T13:09:33;0.90;;;0.40;;
82511;SDS011;72152;65.012;25.464;2024-03-08T13:12:39;0.90;;;0.40;;
82511;SDS011;72152;65.012;25.464;2024-03-08T13:19:04;2.30;;;0.60;;
82511;SDS011;72152;65.012;25.464;2024-03-08T13:22:15;2.40;;;0.60;;
82511;SDS011;72152;65.012;25.464;2024-03-08T13:25:25;0.70;;;0.40;;
82511;SDS011;72152;65.012;25.464;2024-03-08T13:28:33;1.20;;;0.20;;
82511;SDS011;72152;65.012;25.464;2024-03-08T13:31:52;1.30;;;0.10;;
82511;SDS011;72152;65.012;25.464;2024-03-08T13:35:00;0.20;;;0.10;;
82511;SDS011;72152;65.012;25.464;2024-03-08T13:38:17;1.30;;;0.40;;
82511;SDS011;72152;65.012;25.464;2024-03-08T13:41:26;2.30;;;0.30;;
82511;SDS011;72152;65.012;25.464;2024-03-08T13:44:39;2.10;;;0.50;;
82511;SDS011;72152;65.012;25.464;2024-03-08T13:50:51;0.30;;;0.10;;
82511;SDS011;72152;65.012;25.464;2024-03-08T13:54:05;1.20;;;0.40;;
82511;SDS011;72152;65.012;25.464;2024-03-08T13:57:14;2.00;;;0.40;;
82511;SDS011;72152;65.012;25.464;2024-03-08T14:00:23;2.00;;;0.30;;
82511;SDS011;72152;65.012;25.464;2024-03-08T14:03:34;1.80;;;0.30;;
82511;SDS011;72152;65.012;25.464;2024-03-08T14:06:44;2.20;;;1.00;;
82511;SDS011;72152;65.012;25.464;2024-03-08T14:12:55;0.40;;;0.20;;
82511;SDS011;72152;65.012;25.464;2024-03-08T14:16:06;0.80;;;0.20;;
82511;SDS011;72152;65.012;25.464;2024-03-08T14:22:32;1.70;;;0.30;;
82511;SDS011;72152;65.012;25.464;2024-03-08T14:25:50;0.60;;;0.10;;
82511;SDS011;72152;65.012;25.464;2024-03-08T14:29:03;0.70;;;0.30;;
82511;SDS011;72152;65.012;25.464;2024-03-08T14:32:22;0.50;;;0.10;;
82511;SDS011;72152;65.012;25.464;2024-03-08T14:42:19;0.20;;;0.10;;
82511;SDS011;72152;65.012;25.464;2024-03-08T14:45:29;0.90;;;0.30;;
82511;SDS011;72152;65.012;25.464;2024-03-08T14:48:42;1.80;;;0.40;;
82511;SDS011;72152;65.012;25.464;2024-03-08T14:51:49;0.60;;;0.30;;
82511;SDS011;72152;65.012;25.464;2024-03-08T14:55:06;0.80;;;0.30;;
82511;SDS011;72152;65.012;25.464;2024-03-08T14:58:25;0.40;;;0.20;;
82511;SDS011;72152;65.012;25.464;2024-03-08T15:01:33;1.00;;;0.40;;
82511;SDS011;72152;65.012;25.464;2024-03-08T15:04:47;2.50;;;0.90;;
82511;SDS011;72152;65.012;25.464;2024-03-08T15:07:53;1.90;;;0.90;;
82511;SDS011;72152;65.012;25.464;2024-03-08T15:11:02;3.50;;;0.70;;
82511;SDS011;72152;65.012;25.464;2024-03-08T15:14:18;0.90;;;0.30;;
82511;SDS011;72152;65.012;25.464;2024-03-08T15:17:33;0.70;;;0.20;;
82511;SDS011;72152;65.012;25.464;2024-03-08T15:20:50;3.10;;;0.30;;
82511;SDS011;72152;65.012;25.464;2024-03-08T15:24:03;0.90;;;0.40;;
82511;SDS011;72152;65.012;25.464;2024-03-08T15:27:15;2.40;;;0.90;;
82511;SDS011;72152;65.012;25.464;2024-03-08T15:30:23;2.30;;;0.60;;
82511;SDS011;72152;65.012;25.464;2024-03-08T15:33:29;1.10;;;0.30;;
82511;SDS011;72152;65.012;25.464;2024-03-08T15:36:54;0.90;;;0.30;;
82511;SDS011;72152;65.012;25.464;2024-03-08T15:39:56;1.40;;;0.40;;
82511;SDS011;72152;65.012;25.464;2024-03-08T15:43:05;0.10;;;0.00;;
82511;SDS011;72152;65.012;25.464;2024-03-08T15:46:10;2.40;;;0.80;;
82511;SDS011;72152;65.012;25.464;2024-03-08T15:49:15;1.30;;;0.60;;
82511;SDS011;72152;65.012;25.464;2024-03-08T15:52:22;2.70;;;0.80;;
82511;SDS011;72152;65.012;25.464;2024-03-08T15:55:33;1.60;;;0.60;;
82511;SDS011;72152;65.012;25.464;2024-03-08T15:58:43;1.60;;;0.60;;
82511;SDS011;72152;65.012;25.464;2024-03-08T16:01:56;2.10;;;0.80;;
82511;SDS011;72152;65.012;25.464;2024-03-08T16:05:00;3.00;;;0.70;;
82511;SDS011;72152;65.012;25.464;2024-03-08T16:08:19;3.40;;;1.10;;
82511;SDS011;72152;65.012;25.464;2024-03-08T16:11:35;3.30;;;1.00;;
82511;SDS011;72152;65.012;25.464;2024-03-08T16:14:51;2.50;;;0.60;;
82511;SDS011;72152;65.012;25.464;2024-03-08T16:17:59;1.60;;;0.50;;
82511;SDS011;72152;65.012;25.464;2024-03-08T16:21:06;1.00;;;0.50;;
82511;SDS011;72152;65.012;25.464;2024-03-08T16:24:16;2.20;;;0.50;;
82511;SDS011;72152;65.012;25.464;2024-03-08T16:27:26;3.60;;;0.80;;
82511;SDS011;72152;65.012;25.464;2024-03-08T16:30:40;1.50;;;0.70;;
82511;SDS011;72152;65.012;25.464;2024-03-08T16:33:47;1.80;;;0.50;;
82511;SDS011;72152;65.012;25.464;2024-03-08T16:36:57;1.80;;;0.60;;
82511;SDS011;72152;65.012;25.464;2024-03-08T16:40:07;2.40;;;0.70;;
82511;SDS011;72152;65.012;25.464;2024-03-08T16:43:24;3.20;;;0.70;;
82511;SDS011;72152;65.012;25.464;2024-03-08T16:46:45;2.60;;;0.90;;
82511;SDS011;72152;65.012;25.464;2024-03-08T16:49:51;0.70;;;0.40;;
82511;SDS011;72152;65.012;25.464;2024-03-08T16:53:04;4.40;;;1.80;;
82511;SDS011;72152;65.012;25.464;2024-03-08T16:56:09;6.50;;;2.50;;
82511;SDS011;72152;65.012;25.464;2024-03-08T16:59:22;1.90;;;0.70;;
82511;SDS011;72152;65.012;25.464;2024-03-08T17:02:33;1.20;;;0.60;;
82511;SDS011;72152;65.012;25.464;2024-03-08T17:05:42;2.90;;;0.70;;
82511;SDS011;72152;65.012;25.464;2024-03-08T17:08:48;3.80;;;1.00;;
82511;SDS011;72152;65.012;25.464;2024-03-08T17:12:05;3.50;;;0.80;;
82511;SDS011;72152;65.012;25.464;2024-03-08T17:15:07;2.20;;;0.50;;
82511;SDS011;72152;65.012;25.464;2024-03-08T17:18:21;1.40;;;0.70;;
82511;SDS011;72152;65.012;25.464;2024-03-08T17:21:29;4.80;;;0.70;;
82511;SDS011;72152;65.012;25.464;2024-03-08T17:24:36;3.40;;;0.90;;
82511;SDS011;72152;65.012;25.464;2024-03-08T17:27:44;1.90;;;0.80;;
82511;SDS011;72152;65.012;25.464;2024-03-08T17:30:53;3.70;;;1.00;;
82511;SDS011;72152;65.012;25.464;2024-03-08T17:34:05;3.80;;;1.50;;
82511;SDS011;72152;65.012;25.464;2024-03-08T17:37:15;5.40;;;1.50;;
82511;SDS011;72152;65.012;25.464;2024-03-08T17:40:23;4.20;;;1.20;;
82511;SDS011;72152;65.012;25.464;2024-03-08T17:43:32;4.20;;;1.20;;
82511;SDS011;72152;65.012;25.464;2024-03-08T17:46:41;2.90;;;0.90;;
82511;SDS011;72152;65.012;25.464;2024-03-08T17:49:51;3.00;;;1.40;;
82511;SDS011;72152;65.012;25.464;2024-03-08T17:53:02;2.50;;;0.90;;
82511;SDS011;72152;65.012;25.464;2024-03-08T17:56:14;3.10;;;0.90;;
82511;SDS011;72152;65.012;25.464;2024-03-08T17:59:26;3.90;;;1.00;;
82511;SDS011;72152;65.012;25.464;2024-03-08T18:02:35;3.20;;;0.90;;
82511;SDS011;72152;65.012;25.464;2024-03-08T18:05:43;4.60;;;1.10;;
82511;SDS011;72152;65.012;25.464;2024-03-08T18:08:57;3.50;;;1.30;;
82511;SDS011;72152;65.012;25.464;2024-03-08T18:12:07;4.40;;;1.10;;
82511;SDS011;72152;65.012;25.464;2024-03-08T18:15:21;2.30;;;0.90;;
82511;SDS011;72152;65.012;25.464;2024-03-08T18:18:29;3.70;;;1.00;;
82511;SDS011;72152;65.012;25.464;2024-03-08T18:21:44;5.50;;;1.30;;
82511;SDS011;72152;65.012;25.464;2024-03-08T18:24:51;3.90;;;1.20;;
82511;SDS011;72152;65.012;25.464;2024-03-08T18:28:07;2.80;;;1.00;;
82511;SDS011;72152;65.012;25.464;2024-03-08T18:31:16;4.70;;;1.20;;
82511;SDS011;72152;65.012;25.464;2024-03-08T18:34:30;3.40;;;1.10;;
82511;SDS011;72152;65.012;25.464;2024-03-08T18:37:38;2.80;;;1.10;;
82511;SDS011;72152;65.012;25.464;2024-03-08T18:40:44;2.10;;;0.70;;
82511;SDS011;72152;65.012;25.464;2024-03-08T18:43:54;3.50;;;0.90;;
82511;SDS011;72152;65.012;25.464;2024-03-08T18:47:11;1.80;;;0.70;;
82511;SDS011;72152;65.012;25.464;2024-03-08T18:50:21;4.20;;;1.20;;
82511;SDS011;72152;65.012;25.464;2024-03-08T18:53:32;3.30;;;1.20;;
82511;SDS011;72152;65.012;25.464;2024-03-08T18:56:45;2.10;;;1.00;;
82511;SDS011;72152;65.012;25.464;2024-03-08T19:00:01;8.60;;;1.30;;
82511;SDS011;72152;65.012;25.464;2024-03-08T19:03:20;1.40;;;0.60;;
82511;SDS011;72152;65.012;25.464;2024-03-08T19:06:26;2.60;;;0.90;;
82511;SDS011;72152;65.012;25.464;2024-03-08T19:09:33;3.10;;;0.70;;
82511;SDS011;72152;65.012;25.464;2024-03-08T19:12:43;2.70;;;0.80;;
82511;SDS011;72152;65.012;25.464;2024-03-08T19:15:48;2.00;;;0.70;;
82511;SDS011;72152;65.012;25.464;2024-03-08T19:18:55;1.80;;;0.60;;
82511;SDS011;72152;65.012;25.464;2024-03-08T19:22:01;5.40;;;1.00;;
82511;SDS011;72152;65.012;25.464;2024-03-08T19:25:07;3.50;;;0.80;;
82511;SDS011;72152;65.012;25.464;2024-03-08T19:28:15;1.60;;;0.70;;
82511;SDS011;72152;65.012;25.464;2024-03-08T19:31:23;3.90;;;0.90;;
82511;SDS011;72152;65.012;25.464;2024-03-08T19:34:29;4.30;;;0.70;;
82511;SDS011;72152;65.012;25.464;2024-03-08T19:37:36;1.50;;;0.60;;
82511;SDS011;72152;65.012;25.464;2024-03-08T19:40:50;1.30;;;0.60;;
82511;SDS011;72152;65.012;25.464;2024-03-08T19:43:57;3.70;;;1.00;;
82511;SDS011;72152;65.012;25.464;2024-03-08T19:47:05;2.80;;;0.70;;
82511;SDS011;72152;65.012;25.464;2024-03-08T19:50:14;1.90;;;0.70;;
82511;SDS011;72152;65.012;25.464;2024-03-08T19:53:23;3.50;;;0.80;;